普天間 の空港の天気 - METARとTAF

普天間飛行場 ( ROTM / ) - 沖縄県宜野湾市
飛行場実況気象(Metar)
観測時間09/26 09:56 JST (09/26 00:56 UTC)
風向・風速東北東 8m/s 瞬間風速12m/s
視程10km以上
天気現象
全天の4割程度の雲 雲底高度 700m
全天の8割程度の雲 雲底高度 1100m
全天を覆う雲 雲底高度 1680m
気温28.9℃
湿度85%
気圧1003.5hPa
METARROTM 260056Z 07016G23KT 9999 SCT023 BKN036 OVC055 29/26 A2968 RMK PK WND 06026/2357 SLP035 STNPR29390 WND WRNG SET T02890261
過去の天気等 Google飛行場航空写真 Wunderground天気予報

過去48時間のMETAR

飛行場予報(TAF)
発表時間: -
26日12時 JST ~ 26日18時 JST に一時的に
視程8000m
天気現象弱いしゅう雨 もや
全天の4割程度の雲 雲底高度 460m
全天の8割程度の雲 雲底高度 910m
TAF ROTM 2515/2615 08012G20KT 9999 SCT015 BKN040 BKN100 QNH2962INS
TEMPO 2603/2609 8000 -SHRA BR SCT015 BKN030 T27/2515Z T24/2609Z
日本の空港のMETAR・TAFへのリンク

RJTT 東京国際空港
RJAA 新東京国際空港
RJBB 関西国際空港
RJOO 大阪空港
RJGG 中部国際空港
RJCC 新千歳空港
RJFF 福岡空港
ROAH 那覇空港


RJEC 旭川空港
RJCH 函館空港
RJCK 釧路空港
RJCM 女満別空港
RJCB 帯広空港
RJSA 青森空港
RJSS 仙台空港
RJSK 秋田空港
RJSF 福島空港
RJAH 茨城空港
RJSN 新潟空港
RJNT 富山空港
RJNK 小松飛行場
RJNS 静岡空港
RJOH 美保飛行場
RJOC 出雲空港
RJOB 岡山空港
RJOA 広島空港
RJOI 岩国飛行場
RJOT 高松空港
RJOM 松山空港
RJOK 高知空港
RJFR 北九州空港
RJFT 熊本空港
RJFU 長崎空港
RJFS 佐賀空港
RJFO 大分空港
RJFM 宮崎空港
RJFK 鹿児島空港
ROIG 石垣島空港
RJTY 横田飛行場
ROTM 普天間飛行場
RODN 嘉手納飛行場